sensor_id;sensor_type;location;lat;lon;timestamp;pressure;altitude;pressure_sealevel;temperature;humidity
80568;BME280;69922;45.656;25.586;2024-01-16T00:00:40;93652.79;;;1.09;79.64
80568;BME280;69922;45.656;25.586;2024-01-16T00:02:07;93655.27;;;1.11;79.51
80568;BME280;69922;45.656;25.586;2024-01-16T00:03:16;93650.95;;;1.12;79.16
80568;BME280;69922;45.656;25.586;2024-01-16T00:04:22;93653.30;;;1.13;78.98
80568;BME280;69922;45.656;25.586;2024-01-16T00:05:29;93658.76;;;1.12;78.62
80568;BME280;69922;45.656;25.586;2024-01-16T00:06:40;93662.39;;;1.11;78.65
80568;BME280;69922;45.656;25.586;2024-01-16T00:07:50;93669.66;;;1.09;78.54
80568;BME280;69922;45.656;25.586;2024-01-16T00:08:57;93669.08;;;1.07;78.58
80568;BME280;69922;45.656;25.586;2024-01-16T00:10:07;93672.50;;;1.05;78.45
80568;BME280;69922;45.656;25.586;2024-01-16T00:11:14;93676.15;;;1.03;78.60
80568;BME280;69922;45.656;25.586;2024-01-16T00:12:20;93681.31;;;1.00;78.76
80568;BME280;69922;45.656;25.586;2024-01-16T00:13:27;93682.34;;;0.97;79.08
80568;BME280;69922;45.656;25.586;2024-01-16T00:14:36;93680.27;;;0.93;79.29
80568;BME280;69922;45.656;25.586;2024-01-16T00:15:41;93676.62;;;0.88;79.65
80568;BME280;69922;45.656;25.586;2024-01-16T00:16:48;93677.67;;;0.84;79.24
80568;BME280;69922;45.656;25.586;2024-01-16T00:17:54;93677.70;;;0.80;79.55
80568;BME280;69922;45.656;25.586;2024-01-16T00:19:01;93681.52;;;0.77;79.68
80568;BME280;69922;45.656;25.586;2024-01-16T00:20:09;93680.93;;;0.73;79.62
80568;BME280;69922;45.656;25.586;2024-01-16T00:21:17;93684.70;;;0.71;79.72
80568;BME280;69922;45.656;25.586;2024-01-16T00:22:23;93680.54;;;0.68;79.87
80568;BME280;69922;45.656;25.586;2024-01-16T00:23:30;93680.71;;;0.66;80.14
80568;BME280;69922;45.656;25.586;2024-01-16T00:24:39;93685.55;;;0.63;80.38
80568;BME280;69922;45.656;25.586;2024-01-16T00:25:46;93684.85;;;0.60;80.63
80568;BME280;69922;45.656;25.586;2024-01-16T00:26:53;93691.19;;;0.58;80.61
80568;BME280;69922;45.656;25.586;2024-01-16T00:27:59;93688.28;;;0.54;80.85
80568;BME280;69922;45.656;25.586;2024-01-16T00:29:07;93697.35;;;0.52;81.06
80568;BME280;69922;45.656;25.586;2024-01-16T00:30:16;93701.96;;;0.50;81.16
80568;BME280;69922;45.656;25.586;2024-01-16T00:31:23;93708.94;;;0.47;81.16
80568;BME280;69922;45.656;25.586;2024-01-16T00:32:29;93716.02;;;0.45;81.46
80568;BME280;69922;45.656;25.586;2024-01-16T00:33:36;93716.22;;;0.43;81.29
80568;BME280;69922;45.656;25.586;2024-01-16T00:34:43;93706.98;;;0.41;81.37
80568;BME280;69922;45.656;25.586;2024-01-16T00:35:50;93702.91;;;0.39;81.16
80568;BME280;69922;45.656;25.586;2024-01-16T00:36:56;93710.75;;;0.38;81.31
80568;BME280;69922;45.656;25.586;2024-01-16T00:38:02;93719.95;;;0.38;81.16
80568;BME280;69922;45.656;25.586;2024-01-16T00:39:09;93720.18;;;0.37;81.02
80568;BME280;69922;45.656;25.586;2024-01-16T00:40:16;93725.30;;;0.36;81.42
80568;BME280;69922;45.656;25.586;2024-01-16T00:41:23;93737.54;;;0.36;81.29
80568;BME280;69922;45.656;25.586;2024-01-16T00:42:29;93742.84;;;0.35;81.08
80568;BME280;69922;45.656;25.586;2024-01-16T00:43:36;93753.05;;;0.34;81.09
80568;BME280;69922;45.656;25.586;2024-01-16T00:44:42;93752.37;;;0.33;80.79
80568;BME280;69922;45.656;25.586;2024-01-16T00:45:48;93748.38;;;0.31;80.67
80568;BME280;69922;45.656;25.586;2024-01-16T00:46:55;93757.27;;;0.31;80.68
80568;BME280;69922;45.656;25.586;2024-01-16T00:48:01;93766.42;;;0.31;80.80
80568;BME280;69922;45.656;25.586;2024-01-16T00:49:08;93767.89;;;0.29;81.38
80568;BME280;69922;45.656;25.586;2024-01-16T00:50:16;93773.31;;;0.29;81.56
80568;BME280;69922;45.656;25.586;2024-01-16T00:51:22;93767.55;;;0.27;81.48
80568;BME280;69922;45.656;25.586;2024-01-16T00:52:29;93761.82;;;0.26;81.30
80568;BME280;69922;45.656;25.586;2024-01-16T00:53:41;93766.33;;;0.26;81.27
80568;BME280;69922;45.656;25.586;2024-01-16T00:54:48;93763.48;;;0.24;81.06
80568;BME280;69922;45.656;25.586;2024-01-16T00:55:54;93755.74;;;0.24;80.90
80568;BME280;69922;45.656;25.586;2024-01-16T00:57:01;93757.16;;;0.23;80.66
80568;BME280;69922;45.656;25.586;2024-01-16T00:58:07;93759.20;;;0.23;80.39
80568;BME280;69922;45.656;25.586;2024-01-16T00:59:13;93755.46;;;0.22;79.89
80568;BME280;69922;45.656;25.586;2024-01-16T01:00:20;93755.47;;;0.20;79.25
80568;BME280;69922;45.656;25.586;2024-01-16T01:01:27;93758.94;;;0.19;78.84
80568;BME280;69922;45.656;25.586;2024-01-16T01:02:33;93758.69;;;0.18;78.87
80568;BME280;69922;45.656;25.586;2024-01-16T01:03:39;93756.77;;;0.16;78.81
80568;BME280;69922;45.656;25.586;2024-01-16T01:04:46;93761.58;;;0.15;78.93
80568;BME280;69922;45.656;25.586;2024-01-16T01:05:54;93765.37;;;0.13;78.75
80568;BME280;69922;45.656;25.586;2024-01-16T01:07:01;93763.36;;;0.11;78.54
80568;BME280;69922;45.656;25.586;2024-01-16T01:08:08;93761.70;;;0.11;78.53
80568;BME280;69922;45.656;25.586;2024-01-16T01:09:15;93755.59;;;0.10;78.55
80568;BME280;69922;45.656;25.586;2024-01-16T01:10:23;93756.23;;;0.10;78.49
80568;BME280;69922;45.656;25.586;2024-01-16T01:11:30;93758.66;;;0.10;78.60
80568;BME280;69922;45.656;25.586;2024-01-16T01:12:36;93753.19;;;0.09;78.50
80568;BME280;69922;45.656;25.586;2024-01-16T01:13:43;93749.85;;;0.10;78.65
80568;BME280;69922;45.656;25.586;2024-01-16T01:14:49;93753.61;;;0.10;78.76
80568;BME280;69922;45.656;25.586;2024-01-16T01:15:56;93756.83;;;0.10;78.88
80568;BME280;69922;45.656;25.586;2024-01-16T01:17:03;93758.88;;;0.09;78.99
80568;BME280;69922;45.656;25.586;2024-01-16T01:18:09;93760.34;;;0.08;78.94
80568;BME280;69922;45.656;25.586;2024-01-16T01:19:16;93754.52;;;0.07;78.84
80568;BME280;69922;45.656;25.586;2024-01-16T01:20:23;93754.48;;;0.06;78.94
80568;BME280;69922;45.656;25.586;2024-01-16T01:21:29;93760.61;;;0.05;78.97
80568;BME280;69922;45.656;25.586;2024-01-16T01:22:36;93763.09;;;0.04;79.14
80568;BME280;69922;45.656;25.586;2024-01-16T01:23:43;93767.13;;;0.04;79.39
80568;BME280;69922;45.656;25.586;2024-01-16T01:24:50;93780.72;;;0.03;79.27
80568;BME280;69922;45.656;25.586;2024-01-16T01:25:56;93778.66;;;0.00;79.42
80568;BME280;69922;45.656;25.586;2024-01-16T01:27:03;93768.95;;;-0.01;79.04
80568;BME280;69922;45.656;25.586;2024-01-16T01:28:09;93763.00;;;-0.01;79.40
80568;BME280;69922;45.656;25.586;2024-01-16T01:29:17;93748.30;;;-0.02;79.32
80568;BME280;69922;45.656;25.586;2024-01-16T01:30:24;93738.72;;;-0.02;79.40
80568;BME280;69922;45.656;25.586;2024-01-16T01:31:30;93738.34;;;-0.02;79.32
80568;BME280;69922;45.656;25.586;2024-01-16T01:32:37;93747.80;;;-0.03;79.34
80568;BME280;69922;45.656;25.586;2024-01-16T01:33:44;93752.09;;;-0.03;79.36
80568;BME280;69922;45.656;25.586;2024-01-16T01:34:51;93749.84;;;-0.04;79.29
80568;BME280;69922;45.656;25.586;2024-01-16T01:35:58;93748.29;;;-0.04;79.45
80568;BME280;69922;45.656;25.586;2024-01-16T01:37:05;93746.91;;;-0.05;79.71
80568;BME280;69922;45.656;25.586;2024-01-16T01:38:12;93736.31;;;-0.07;79.89
80568;BME280;69922;45.656;25.586;2024-01-16T01:39:18;93737.68;;;-0.08;79.84
80568;BME280;69922;45.656;25.586;2024-01-16T01:40:25;93736.33;;;-0.10;80.09
80568;BME280;69922;45.656;25.586;2024-01-16T01:41:32;93738.21;;;-0.12;79.96
80568;BME280;69922;45.656;25.586;2024-01-16T01:42:40;93738.59;;;-0.12;79.97
80568;BME280;69922;45.656;25.586;2024-01-16T01:43:46;93742.10;;;-0.12;79.95
80568;BME280;69922;45.656;25.586;2024-01-16T01:44:53;93739.79;;;-0.13;79.92
80568;BME280;69922;45.656;25.586;2024-01-16T01:46:14;93739.35;;;-0.12;80.05
80568;BME280;69922;45.656;25.586;2024-01-16T01:47:19;93742.73;;;-0.12;80.42
80568;BME280;69922;45.656;25.586;2024-01-16T01:48:26;93744.14;;;-0.14;80.54
80568;BME280;69922;45.656;25.586;2024-01-16T01:49:32;93739.02;;;-0.15;80.53
80568;BME280;69922;45.656;25.586;2024-01-16T01:50:39;93738.39;;;-0.16;80.55
80568;BME280;69922;45.656;25.586;2024-01-16T01:51:46;93737.34;;;-0.18;80.92
80568;BME280;69922;45.656;25.586;2024-01-16T01:52:52;93745.26;;;-0.19;81.02
80568;BME280;69922;45.656;25.586;2024-01-16T01:53:59;93751.92;;;-0.20;81.05
80568;BME280;69922;45.656;25.586;2024-01-16T01:55:10;93751.48;;;-0.20;80.77
80568;BME280;69922;45.656;25.586;2024-01-16T01:56:18;93750.31;;;-0.21;80.91
80568;BME280;69922;45.656;25.586;2024-01-16T01:57:26;93751.07;;;-0.21;80.82
80568;BME280;69922;45.656;25.586;2024-01-16T01:58:33;93756.13;;;-0.21;80.93
80568;BME280;69922;45.656;25.586;2024-01-16T01:59:39;93759.66;;;-0.21;81.06
80568;BME280;69922;45.656;25.586;2024-01-16T02:00:46;93759.20;;;-0.22;81.28
80568;BME280;69922;45.656;25.586;2024-01-16T02:01:53;93762.91;;;-0.23;81.67
80568;BME280;69922;45.656;25.586;2024-01-16T02:03:00;93759.72;;;-0.25;81.77
80568;BME280;69922;45.656;25.586;2024-01-16T02:04:07;93763.21;;;-0.25;81.33
80568;BME280;69922;45.656;25.586;2024-01-16T02:05:14;93766.50;;;-0.26;81.53
80568;BME280;69922;45.656;25.586;2024-01-16T02:06:21;93767.24;;;-0.26;81.64
80568;BME280;69922;45.656;25.586;2024-01-16T02:07:28;93768.55;;;-0.26;81.45
80568;BME280;69922;45.656;25.586;2024-01-16T02:08:35;93768.31;;;-0.26;81.78
80568;BME280;69922;45.656;25.586;2024-01-16T02:09:42;93771.38;;;-0.26;81.74
80568;BME280;69922;45.656;25.586;2024-01-16T02:10:54;93771.98;;;-0.26;81.61
80568;BME280;69922;45.656;25.586;2024-01-16T02:12:01;93779.36;;;-0.26;81.44
80568;BME280;69922;45.656;25.586;2024-01-16T02:13:07;93782.89;;;-0.24;81.09
80568;BME280;69922;45.656;25.586;2024-01-16T02:14:14;93775.86;;;-0.22;81.06
80568;BME280;69922;45.656;25.586;2024-01-16T02:15:20;93776.66;;;-0.20;80.99
80568;BME280;69922;45.656;25.586;2024-01-16T02:16:37;93775.08;;;-0.18;80.74
80568;BME280;69922;45.656;25.586;2024-01-16T02:17:42;93771.48;;;-0.18;80.79
80568;BME280;69922;45.656;25.586;2024-01-16T02:18:49;93771.27;;;-0.18;80.71
80568;BME280;69922;45.656;25.586;2024-01-16T02:19:56;93767.45;;;-0.18;80.67
80568;BME280;69922;45.656;25.586;2024-01-16T02:21:04;93771.08;;;-0.16;80.74
80568;BME280;69922;45.656;25.586;2024-01-16T02:22:16;93772.02;;;-0.15;80.95
80568;BME280;69922;45.656;25.586;2024-01-16T02:23:28;93779.23;;;-0.16;81.31
80568;BME280;69922;45.656;25.586;2024-01-16T02:24:34;93771.08;;;-0.16;81.01
80568;BME280;69922;45.656;25.586;2024-01-16T02:25:41;93772.02;;;-0.16;81.13
80568;BME280;69922;45.656;25.586;2024-01-16T02:26:48;93777.07;;;-0.15;81.09
80568;BME280;69922;45.656;25.586;2024-01-16T02:27:55;93782.59;;;-0.15;81.36
80568;BME280;69922;45.656;25.586;2024-01-16T02:29:02;93783.72;;;-0.15;81.17
80568;BME280;69922;45.656;25.586;2024-01-16T02:30:10;93783.66;;;-0.16;81.22
80568;BME280;69922;45.656;25.586;2024-01-16T02:31:17;93789.06;;;-0.17;81.26
80568;BME280;69922;45.656;25.586;2024-01-16T02:32:24;93787.67;;;-0.18;81.39
80568;BME280;69922;45.656;25.586;2024-01-16T02:33:31;93788.34;;;-0.19;81.05
80568;BME280;69922;45.656;25.586;2024-01-16T02:34:37;93788.34;;;-0.19;81.15
80568;BME280;69922;45.656;25.586;2024-01-16T02:35:44;93789.80;;;-0.20;80.96
80568;BME280;69922;45.656;25.586;2024-01-16T02:36:50;93786.48;;;-0.20;81.13
80568;BME280;69922;45.656;25.586;2024-01-16T02:37:57;93784.11;;;-0.20;80.95
80568;BME280;69922;45.656;25.586;2024-01-16T02:39:03;93781.74;;;-0.20;80.89
80568;BME280;69922;45.656;25.586;2024-01-16T02:40:11;93778.91;;;-0.20;80.89
80568;BME280;69922;45.656;25.586;2024-01-16T02:41:18;93781.11;;;-0.21;80.94
80568;BME280;69922;45.656;25.586;2024-01-16T02:42:24;93779.23;;;-0.22;80.83
80568;BME280;69922;45.656;25.586;2024-01-16T02:43:30;93782.73;;;-0.21;80.64
80568;BME280;69922;45.656;25.586;2024-01-16T02:44:37;93783.26;;;-0.21;80.35
80568;BME280;69922;45.656;25.586;2024-01-16T02:45:43;93783.14;;;-0.20;80.35
80568;BME280;69922;45.656;25.586;2024-01-16T02:46:50;93782.52;;;-0.21;80.36
80568;BME280;69922;45.656;25.586;2024-01-16T02:47:56;93782.02;;;-0.21;80.35
80568;BME280;69922;45.656;25.586;2024-01-16T02:49:03;93776.88;;;-0.21;80.21
80568;BME280;69922;45.656;25.586;2024-01-16T02:50:10;93771.77;;;-0.21;80.22
80568;BME280;69922;45.656;25.586;2024-01-16T02:51:17;93766.84;;;-0.20;80.03
80568;BME280;69922;45.656;25.586;2024-01-16T02:52:23;93768.18;;;-0.20;80.16
80568;BME280;69922;45.656;25.586;2024-01-16T02:53:30;93768.34;;;-0.20;80.18
80568;BME280;69922;45.656;25.586;2024-01-16T02:54:36;93768.77;;;-0.19;80.24
80568;BME280;69922;45.656;25.586;2024-01-16T02:55:43;93773.46;;;-0.18;80.10
80568;BME280;69922;45.656;25.586;2024-01-16T02:56:49;93777.44;;;-0.19;80.11
80568;BME280;69922;45.656;25.586;2024-01-16T02:57:56;93780.29;;;-0.19;79.93
80568;BME280;69922;45.656;25.586;2024-01-16T02:59:02;93782.23;;;-0.19;79.93
80568;BME280;69922;45.656;25.586;2024-01-16T03:00:10;93782.88;;;-0.20;79.88
80568;BME280;69922;45.656;25.586;2024-01-16T03:01:17;93782.23;;;-0.19;79.91
80568;BME280;69922;45.656;25.586;2024-01-16T03:02:23;93787.27;;;-0.20;79.81
80568;BME280;69922;45.656;25.586;2024-01-16T03:03:30;93785.98;;;-0.20;79.57
80568;BME280;69922;45.656;25.586;2024-01-16T03:04:36;93787.01;;;-0.20;79.61
80568;BME280;69922;45.656;25.586;2024-01-16T03:05:43;93785.98;;;-0.20;79.62
80568;BME280;69922;45.656;25.586;2024-01-16T03:06:49;93789.15;;;-0.20;79.50
80568;BME280;69922;45.656;25.586;2024-01-16T03:07:56;93788.35;;;-0.20;79.40
80568;BME280;69922;45.656;25.586;2024-01-16T03:09:03;93791.14;;;-0.19;79.25
80568;BME280;69922;45.656;25.586;2024-01-16T03:10:10;93797.60;;;-0.18;79.02
80568;BME280;69922;45.656;25.586;2024-01-16T03:11:16;93806.23;;;-0.18;78.43
80568;BME280;69922;45.656;25.586;2024-01-16T03:12:23;93810.25;;;-0.17;78.40
80568;BME280;69922;45.656;25.586;2024-01-16T03:13:29;93810.46;;;-0.16;78.49
80568;BME280;69922;45.656;25.586;2024-01-16T03:14:36;93816.88;;;-0.15;78.70
80568;BME280;69922;45.656;25.586;2024-01-16T03:15:45;93816.48;;;-0.17;78.57
80568;BME280;69922;45.656;25.586;2024-01-16T03:16:52;93819.19;;;-0.18;78.63
80568;BME280;69922;45.656;25.586;2024-01-16T03:17:58;93813.55;;;-0.20;78.71
80568;BME280;69922;45.656;25.586;2024-01-16T03:19:06;93815.39;;;-0.21;78.87
80568;BME280;69922;45.656;25.586;2024-01-16T03:20:14;93809.57;;;-0.22;78.83
80568;BME280;69922;45.656;25.586;2024-01-16T03:21:20;93808.15;;;-0.24;78.92
80568;BME280;69922;45.656;25.586;2024-01-16T03:22:26;93811.71;;;-0.26;78.88
80568;BME280;69922;45.656;25.586;2024-01-16T03:23:33;93817.96;;;-0.28;79.11
80568;BME280;69922;45.656;25.586;2024-01-16T03:24:39;93816.70;;;-0.29;78.97
80568;BME280;69922;45.656;25.586;2024-01-16T03:25:46;93820.15;;;-0.31;79.18
80568;BME280;69922;45.656;25.586;2024-01-16T03:26:53;93820.43;;;-0.32;79.27
80568;BME280;69922;45.656;25.586;2024-01-16T03:28:00;93827.60;;;-0.34;79.63
80568;BME280;69922;45.656;25.586;2024-01-16T03:29:06;93817.52;;;-0.36;79.39
80568;BME280;69922;45.656;25.586;2024-01-16T03:30:13;93819.06;;;-0.37;79.50
80568;BME280;69922;45.656;25.586;2024-01-16T03:31:20;93821.80;;;-0.38;79.45
80568;BME280;69922;45.656;25.586;2024-01-16T03:32:27;93820.17;;;-0.40;79.73
80568;BME280;69922;45.656;25.586;2024-01-16T03:33:34;93824.26;;;-0.41;79.60
80568;BME280;69922;45.656;25.586;2024-01-16T03:34:41;93824.86;;;-0.42;79.69
80568;BME280;69922;45.656;25.586;2024-01-16T03:35:47;93833.36;;;-0.43;79.82
80568;BME280;69922;45.656;25.586;2024-01-16T03:36:54;93829.55;;;-0.44;79.75
80568;BME280;69922;45.656;25.586;2024-01-16T03:38:00;93832.36;;;-0.46;79.76
80568;BME280;69922;45.656;25.586;2024-01-16T03:39:07;93843.58;;;-0.46;80.02
80568;BME280;69922;45.656;25.586;2024-01-16T03:40:15;93856.86;;;-0.48;80.04
80568;BME280;69922;45.656;25.586;2024-01-16T03:41:22;93855.20;;;-0.48;79.92
80568;BME280;69922;45.656;25.586;2024-01-16T03:42:29;93848.71;;;-0.49;80.03
80568;BME280;69922;45.656;25.586;2024-01-16T03:43:35;93851.19;;;-0.50;80.26
80568;BME280;69922;45.656;25.586;2024-01-16T03:44:41;93851.89;;;-0.51;80.29
80568;BME280;69922;45.656;25.586;2024-01-16T03:45:48;93852.97;;;-0.52;80.28
80568;BME280;69922;45.656;25.586;2024-01-16T03:46:54;93854.29;;;-0.53;80.36
80568;BME280;69922;45.656;25.586;2024-01-16T03:48:01;93857.61;;;-0.53;80.27
80568;BME280;69922;45.656;25.586;2024-01-16T03:49:08;93854.79;;;-0.55;80.56
80568;BME280;69922;45.656;25.586;2024-01-16T03:50:14;93855.86;;;-0.55;80.52
80568;BME280;69922;45.656;25.586;2024-01-16T03:51:21;93859.77;;;-0.55;80.45
80568;BME280;69922;45.656;25.586;2024-01-16T03:52:28;93867.24;;;-0.56;80.53
80568;BME280;69922;45.656;25.586;2024-01-16T03:53:34;93863.98;;;-0.57;80.27
80568;BME280;69922;45.656;25.586;2024-01-16T03:54:40;93867.42;;;-0.58;80.27
80568;BME280;69922;45.656;25.586;2024-01-16T03:55:46;93867.71;;;-0.59;80.15
80568;BME280;69922;45.656;25.586;2024-01-16T03:56:53;93871.63;;;-0.59;80.06
80568;BME280;69922;45.656;25.586;2024-01-16T03:57:59;93873.55;;;-0.59;80.03
80568;BME280;69922;45.656;25.586;2024-01-16T03:59:06;93874.33;;;-0.61;79.85
80568;BME280;69922;45.656;25.586;2024-01-16T04:00:14;93880.92;;;-0.61;79.73
80568;BME280;69922;45.656;25.586;2024-01-16T04:01:31;93875.42;;;-0.62;79.87
80568;BME280;69922;45.656;25.586;2024-01-16T04:02:38;93875.86;;;-0.64;79.82
80568;BME280;69922;45.656;25.586;2024-01-16T04:03:45;93880.16;;;-0.65;79.90
80568;BME280;69922;45.656;25.586;2024-01-16T04:04:51;93888.98;;;-0.67;79.82
80568;BME280;69922;45.656;25.586;2024-01-16T04:05:58;93892.32;;;-0.69;79.83
80568;BME280;69922;45.656;25.586;2024-01-16T04:07:05;93896.89;;;-0.70;79.94
80568;BME280;69922;45.656;25.586;2024-01-16T04:08:11;93899.21;;;-0.72;80.31
80568;BME280;69922;45.656;25.586;2024-01-16T04:09:18;93899.46;;;-0.74;80.14
80568;BME280;69922;45.656;25.586;2024-01-16T04:10:24;93899.69;;;-0.76;80.11
80568;BME280;69922;45.656;25.586;2024-01-16T04:11:31;93893.34;;;-0.79;80.18
80568;BME280;69922;45.656;25.586;2024-01-16T04:12:38;93901.77;;;-0.81;80.34
80568;BME280;69922;45.656;25.586;2024-01-16T04:13:44;93906.61;;;-0.83;80.42
80568;BME280;69922;45.656;25.586;2024-01-16T04:14:50;93907.11;;;-0.84;80.44
80568;BME280;69922;45.656;25.586;2024-01-16T04:15:57;93910.58;;;-0.88;80.32
80568;BME280;69922;45.656;25.586;2024-01-16T04:17:03;93909.64;;;-0.90;80.36
80568;BME280;69922;45.656;25.586;2024-01-16T04:18:10;93906.98;;;-0.93;80.80
80568;BME280;69922;45.656;25.586;2024-01-16T04:19:16;93905.68;;;-0.96;81.00
80568;BME280;69922;45.656;25.586;2024-01-16T04:20:23;93903.46;;;-0.98;80.76
80568;BME280;69922;45.656;25.586;2024-01-16T04:21:29;93900.62;;;-1.00;81.09
80568;BME280;69922;45.656;25.586;2024-01-16T04:22:36;93897.98;;;-1.03;81.07
80568;BME280;69922;45.656;25.586;2024-01-16T04:23:42;93893.19;;;-1.06;81.12
80568;BME280;69922;45.656;25.586;2024-01-16T04:24:49;93899.59;;;-1.09;80.89
80568;BME280;69922;45.656;25.586;2024-01-16T04:25:55;93898.71;;;-1.13;81.04
80568;BME280;69922;45.656;25.586;2024-01-16T04:27:02;93901.75;;;-1.16;81.24
80568;BME280;69922;45.656;25.586;2024-01-16T04:28:08;93906.38;;;-1.20;81.68
80568;BME280;69922;45.656;25.586;2024-01-16T04:29:14;93904.65;;;-1.23;81.23
80568;BME280;69922;45.656;25.586;2024-01-16T04:30:21;93906.91;;;-1.25;81.32
80568;BME280;69922;45.656;25.586;2024-01-16T04:31:27;93902.29;;;-1.28;81.26
80568;BME280;69922;45.656;25.586;2024-01-16T04:32:33;93904.60;;;-1.30;81.34
80568;BME280;69922;45.656;25.586;2024-01-16T04:33:41;93906.59;;;-1.32;81.55
80568;BME280;69922;45.656;25.586;2024-01-16T04:34:48;93909.45;;;-1.33;81.66
80568;BME280;69922;45.656;25.586;2024-01-16T04:35:54;93910.27;;;-1.34;81.81
80568;BME280;69922;45.656;25.586;2024-01-16T04:37:01;93912.69;;;-1.35;81.83
80568;BME280;69922;45.656;25.586;2024-01-16T04:38:07;93915.63;;;-1.36;81.85
80568;BME280;69922;45.656;25.586;2024-01-16T04:39:14;93922.21;;;-1.35;81.96
80568;BME280;69922;45.656;25.586;2024-01-16T04:40:20;93924.84;;;-1.35;81.84
80568;BME280;69922;45.656;25.586;2024-01-16T04:41:28;93924.61;;;-1.34;81.83
80568;BME280;69922;45.656;25.586;2024-01-16T04:42:34;93928.77;;;-1.32;81.29
80568;BME280;69922;45.656;25.586;2024-01-16T04:43:41;93931.21;;;-1.30;81.44
80568;BME280;69922;45.656;25.586;2024-01-16T04:44:47;93931.80;;;-1.29;81.40
80568;BME280;69922;45.656;25.586;2024-01-16T04:45:54;93932.38;;;-1.27;81.18
80568;BME280;69922;45.656;25.586;2024-01-16T04:47:01;93938.41;;;-1.26;80.93
80568;BME280;69922;45.656;25.586;2024-01-16T04:48:08;93942.73;;;-1.24;80.77
80568;BME280;69922;45.656;25.586;2024-01-16T04:49:15;93946.20;;;-1.21;80.68
80568;BME280;69922;45.656;25.586;2024-01-16T04:50:21;93948.16;;;-1.20;80.39
80568;BME280;69922;45.656;25.586;2024-01-16T04:51:29;93943.92;;;-1.18;80.19
80568;BME280;69922;45.656;25.586;2024-01-16T04:52:36;93945.89;;;-1.15;80.28
80568;BME280;69922;45.656;25.586;2024-01-16T04:53:42;93949.17;;;-1.12;79.86
80568;BME280;69922;45.656;25.586;2024-01-16T04:54:49;93947.65;;;-1.09;79.78
80568;BME280;69922;45.656;25.586;2024-01-16T04:55:55;93944.89;;;-1.07;79.72
80568;BME280;69922;45.656;25.586;2024-01-16T04:57:01;93944.45;;;-1.04;79.36
80568;BME280;69922;45.656;25.586;2024-01-16T04:58:09;93937.98;;;-1.02;79.04
80568;BME280;69922;45.656;25.586;2024-01-16T04:59:16;93935.83;;;-1.00;79.03
80568;BME280;69922;45.656;25.586;2024-01-16T05:00:23;93941.11;;;-0.97;78.91
80568;BME280;69922;45.656;25.586;2024-01-16T05:01:30;93943.63;;;-0.95;78.77
80568;BME280;69922;45.656;25.586;2024-01-16T05:02:37;93945.80;;;-0.93;78.56
80568;BME280;69922;45.656;25.586;2024-01-16T05:03:44;93947.98;;;-0.92;78.04
80568;BME280;69922;45.656;25.586;2024-01-16T05:04:50;93947.69;;;-0.90;77.54
80568;BME280;69922;45.656;25.586;2024-01-16T05:05:58;93949.19;;;-0.89;77.55
80568;BME280;69922;45.656;25.586;2024-01-16T05:07:05;93956.29;;;-0.86;77.25
80568;BME280;69922;45.656;25.586;2024-01-16T05:08:12;93960.61;;;-0.84;76.19
80568;BME280;69922;45.656;25.586;2024-01-16T05:09:20;93960.89;;;-0.81;76.37
80568;BME280;69922;45.656;25.586;2024-01-16T05:10:27;93966.40;;;-0.78;76.01
80568;BME280;69922;45.656;25.586;2024-01-16T05:11:33;93971.73;;;-0.77;76.15
80568;BME280;69922;45.656;25.586;2024-01-16T05:12:41;93976.13;;;-0.75;76.18
80568;BME280;69922;45.656;25.586;2024-01-16T05:13:48;93972.73;;;-0.74;76.25
80568;BME280;69922;45.656;25.586;2024-01-16T05:14:54;93973.70;;;-0.74;75.69
80568;BME280;69922;45.656;25.586;2024-01-16T05:16:01;93962.21;;;-0.72;75.29
80568;BME280;69922;45.656;25.586;2024-01-16T05:17:08;93959.27;;;-0.72;75.19
80568;BME280;69922;45.656;25.586;2024-01-16T05:18:14;93964.30;;;-0.72;74.08
80568;BME280;69922;45.656;25.586;2024-01-16T05:19:21;93965.27;;;-0.72;73.67
80568;BME280;69922;45.656;25.586;2024-01-16T05:20:28;93964.17;;;-0.71;73.76
80568;BME280;69922;45.656;25.586;2024-01-16T05:21:35;93970.30;;;-0.72;74.17
80568;BME280;69922;45.656;25.586;2024-01-16T05:22:42;93976.37;;;-0.73;74.21
80568;BME280;69922;45.656;25.586;2024-01-16T05:23:48;93980.19;;;-0.74;73.95
80568;BME280;69922;45.656;25.586;2024-01-16T05:24:55;93985.36;;;-0.76;72.95
80568;BME280;69922;45.656;25.586;2024-01-16T05:26:02;93999.34;;;-0.76;73.59
80568;BME280;69922;45.656;25.586;2024-01-16T05:27:08;93996.57;;;-0.77;73.15
80568;BME280;69922;45.656;25.586;2024-01-16T05:28:15;93993.27;;;-0.79;73.07
80568;BME280;69922;45.656;25.586;2024-01-16T05:29:22;93990.98;;;-0.81;73.19
80568;BME280;69922;45.656;25.586;2024-01-16T05:30:30;93994.48;;;-0.84;72.08
80568;BME280;69922;45.656;25.586;2024-01-16T05:31:41;94000.11;;;-0.85;71.89
80568;BME280;69922;45.656;25.586;2024-01-16T05:32:48;94003.94;;;-0.86;72.32
80568;BME280;69922;45.656;25.586;2024-01-16T05:33:55;94005.25;;;-0.89;71.81
80568;BME280;69922;45.656;25.586;2024-01-16T05:35:01;94009.81;;;-0.90;71.23
80568;BME280;69922;45.656;25.586;2024-01-16T05:36:10;94008.20;;;-0.91;71.22
80568;BME280;69922;45.656;25.586;2024-01-16T05:37:16;94009.44;;;-0.92;71.42
80568;BME280;69922;45.656;25.586;2024-01-16T05:38:22;94006.83;;;-0.93;71.10
80568;BME280;69922;45.656;25.586;2024-01-16T05:39:29;94004.27;;;-0.95;71.09
80568;BME280;69922;45.656;25.586;2024-01-16T05:40:36;94016.02;;;-0.97;70.56
80568;BME280;69922;45.656;25.586;2024-01-16T05:41:42;94000.33;;;-0.98;69.39
80568;BME280;69922;45.656;25.586;2024-01-16T05:42:49;94005.05;;;-0.98;69.71
80568;BME280;69922;45.656;25.586;2024-01-16T05:43:56;94005.65;;;-0.98;69.47
80568;BME280;69922;45.656;25.586;2024-01-16T05:45:03;94022.05;;;-1.00;69.37
80568;BME280;69922;45.656;25.586;2024-01-16T05:46:09;94017.39;;;-1.01;68.71
80568;BME280;69922;45.656;25.586;2024-01-16T05:47:16;94024.68;;;-1.01;68.85
80568;BME280;69922;45.656;25.586;2024-01-16T05:48:23;94027.58;;;-1.01;69.33
80568;BME280;69922;45.656;25.586;2024-01-16T05:49:30;94024.44;;;-1.02;69.27
80568;BME280;69922;45.656;25.586;2024-01-16T05:50:37;94032.69;;;-1.04;69.18
80568;BME280;69922;45.656;25.586;2024-01-16T05:51:45;94036.83;;;-1.04;68.91